sensor_id;sensor_type;location;lat;lon;timestamp;pressure;altitude;pressure_sealevel;temperature;humidity
23677;BME280;31493;49.058;12.190;2023-05-14T00:01:39;96110.97;;;8.39;100.00
23677;BME280;31493;49.058;12.190;2023-05-14T00:04:12;96115.78;;;8.45;100.00
23677;BME280;31493;49.058;12.190;2023-05-14T00:06:39;96095.19;;;8.29;100.00
23677;BME280;31493;49.058;12.190;2023-05-14T00:09:06;96095.81;;;8.32;100.00
23677;BME280;31493;49.058;12.190;2023-05-14T00:11:33;96087.16;;;8.33;100.00
23677;BME280;31493;49.058;12.190;2023-05-14T00:14:00;96103.66;;;8.31;100.00
23677;BME280;31493;49.058;12.190;2023-05-14T00:16:27;96098.66;;;8.28;100.00
23677;BME280;31493;49.058;12.190;2023-05-14T00:18:54;96087.72;;;8.24;100.00
23677;BME280;31493;49.058;12.190;2023-05-14T00:21:23;96091.22;;;8.23;100.00
23677;BME280;31493;49.058;12.190;2023-05-14T00:23:50;96093.81;;;8.23;100.00
23677;BME280;31493;49.058;12.190;2023-05-14T00:26:17;96089.53;;;8.22;100.00
23677;BME280;31493;49.058;12.190;2023-05-14T00:28:45;96076.94;;;8.18;100.00
23677;BME280;31493;49.058;12.190;2023-05-14T00:31:12;96083.91;;;8.16;100.00
23677;BME280;31493;49.058;12.190;2023-05-14T00:33:39;96091.56;;;8.17;100.00
23677;BME280;31493;49.058;12.190;2023-05-14T00:36:07;96072.19;;;8.10;100.00
23677;BME280;31493;49.058;12.190;2023-05-14T00:38:35;96077.91;;;8.15;100.00
23677;BME280;31493;49.058;12.190;2023-05-14T00:41:02;96087.63;;;8.26;100.00
23677;BME280;31493;49.058;12.190;2023-05-14T00:43:29;96082.47;;;8.26;100.00
23677;BME280;31493;49.058;12.190;2023-05-14T00:45:57;96091.03;;;8.26;100.00
23677;BME280;31493;49.058;12.190;2023-05-14T00:48:25;96075.88;;;8.36;100.00
23677;BME280;31493;49.058;12.190;2023-05-14T00:50:52;96074.03;;;8.38;100.00
23677;BME280;31493;49.058;12.190;2023-05-14T00:53:19;96084.34;;;8.38;100.00
23677;BME280;31493;49.058;12.190;2023-05-14T00:55:49;96079.91;;;8.40;100.00
23677;BME280;31493;49.058;12.190;2023-05-14T00:58:17;96086.31;;;8.49;100.00
23677;BME280;31493;49.058;12.190;2023-05-14T01:00:44;96074.59;;;8.57;100.00
23677;BME280;31493;49.058;12.190;2023-05-14T01:03:11;96077.00;;;8.60;100.00
23677;BME280;31493;49.058;12.190;2023-05-14T01:05:44;96076.63;;;8.67;100.00
23677;BME280;31493;49.058;12.190;2023-05-14T01:08:26;96085.13;;;8.69;100.00
23677;BME280;31493;49.058;12.190;2023-05-14T01:11:04;96077.38;;;8.69;100.00
23677;BME280;31493;49.058;12.190;2023-05-14T01:13:37;96073.22;;;8.66;100.00
23677;BME280;31493;49.058;12.190;2023-05-14T01:16:12;96076.44;;;8.70;100.00
23677;BME280;31493;49.058;12.190;2023-05-14T01:18:40;96079.38;;;8.64;100.00
23677;BME280;31493;49.058;12.190;2023-05-14T01:21:32;96064.81;;;8.77;100.00
23677;BME280;31493;49.058;12.190;2023-05-14T01:24:00;96075.97;;;8.63;100.00
23677;BME280;31493;49.058;12.190;2023-05-14T01:26:27;96071.53;;;8.65;100.00
23677;BME280;31493;49.058;12.190;2023-05-14T01:28:59;96068.06;;;8.66;100.00
23677;BME280;31493;49.058;12.190;2023-05-14T01:31:28;96065.56;;;8.65;100.00
23677;BME280;31493;49.058;12.190;2023-05-14T01:33:58;96070.28;;;8.72;100.00
23677;BME280;31493;49.058;12.190;2023-05-14T01:36:28;96055.91;;;8.68;100.00
23677;BME280;31493;49.058;12.190;2023-05-14T01:38:56;96061.97;;;8.67;100.00
23677;BME280;31493;49.058;12.190;2023-05-14T01:41:24;96065.03;;;8.74;100.00
23677;BME280;31493;49.058;12.190;2023-05-14T01:43:52;96063.44;;;8.71;100.00
23677;BME280;31493;49.058;12.190;2023-05-14T01:46:19;96063.28;;;8.74;100.00
23677;BME280;31493;49.058;12.190;2023-05-14T01:48:48;96053.13;;;8.71;100.00
23677;BME280;31493;49.058;12.190;2023-05-14T01:51:15;96061.16;;;8.67;100.00
23677;BME280;31493;49.058;12.190;2023-05-14T01:53:44;96058.94;;;8.75;100.00
23677;BME280;31493;49.058;12.190;2023-05-14T01:56:11;96061.78;;;8.70;100.00
23677;BME280;31493;49.058;12.190;2023-05-14T01:58:38;96051.56;;;8.69;100.00
23677;BME280;31493;49.058;12.190;2023-05-14T02:01:05;96051.66;;;8.67;100.00
23677;BME280;31493;49.058;12.190;2023-05-14T02:03:32;96051.66;;;8.67;100.00
23677;BME280;31493;49.058;12.190;2023-05-14T02:05:59;96046.50;;;8.67;100.00
23677;BME280;31493;49.058;12.190;2023-05-14T02:08:26;96048.31;;;8.65;100.00
23677;BME280;31493;49.058;12.190;2023-05-14T02:10:54;96043.66;;;8.72;100.00
23677;BME280;31493;49.058;12.190;2023-05-14T02:13:21;96042.88;;;8.70;100.00
23677;BME280;31493;49.058;12.190;2023-05-14T02:15:48;96052.28;;;8.71;100.00
23677;BME280;31493;49.058;12.190;2023-05-14T02:18:15;96053.41;;;8.67;100.00
23677;BME280;31493;49.058;12.190;2023-05-14T02:20:42;96043.81;;;8.69;100.00
23677;BME280;31493;49.058;12.190;2023-05-14T02:23:10;96057.00;;;8.64;100.00
23677;BME280;31493;49.058;12.190;2023-05-14T02:25:37;96046.59;;;8.66;100.00
23677;BME280;31493;49.058;12.190;2023-05-14T02:28:05;96046.66;;;8.64;100.00
23677;BME280;31493;49.058;12.190;2023-05-14T02:30:32;96042.91;;;8.55;100.00
23677;BME280;31493;49.058;12.190;2023-05-14T02:32:59;96042.19;;;8.53;100.00
23677;BME280;31493;49.058;12.190;2023-05-14T02:35:26;96027.69;;;8.51;100.00
23677;BME280;31493;49.058;12.190;2023-05-14T02:37:53;96029.72;;;8.46;100.00
23677;BME280;31493;49.058;12.190;2023-05-14T02:40:20;96034.66;;;8.34;100.00
23677;BME280;31493;49.058;12.190;2023-05-14T02:42:47;96026.28;;;8.31;100.00
23677;BME280;31493;49.058;12.190;2023-05-14T02:45:16;96029.03;;;8.28;100.00
23677;BME280;31493;49.058;12.190;2023-05-14T02:47:43;96034.28;;;8.26;100.00
23677;BME280;31493;49.058;12.190;2023-05-14T02:50:10;96027.75;;;8.21;100.00
23677;BME280;31493;49.058;12.190;2023-05-14T02:52:37;96022.69;;;8.19;100.00
23677;BME280;31493;49.058;12.190;2023-05-14T02:55:05;96020.00;;;8.21;100.00
23677;BME280;31493;49.058;12.190;2023-05-14T02:57:32;96012.63;;;8.15;100.00
23677;BME280;31493;49.058;12.190;2023-05-14T02:59:59;96020.25;;;8.16;100.00
23677;BME280;31493;49.058;12.190;2023-05-14T03:02:27;96020.63;;;8.10;100.00
23677;BME280;31493;49.058;12.190;2023-05-14T03:04:55;96013.66;;;8.12;100.00
23677;BME280;31493;49.058;12.190;2023-05-14T03:07:22;96013.91;;;8.07;100.00
23677;BME280;31493;49.058;12.190;2023-05-14T03:09:49;96008.94;;;8.04;100.00
23677;BME280;31493;49.058;12.190;2023-05-14T03:12:16;96004.69;;;8.03;100.00
23677;BME280;31493;49.058;12.190;2023-05-14T03:14:43;96011.88;;;7.98;100.00
23677;BME280;31493;49.058;12.190;2023-05-14T03:17:10;96000.56;;;8.01;100.00
23677;BME280;31493;49.058;12.190;2023-05-14T03:19:38;96007.38;;;8.02;100.00
23677;BME280;31493;49.058;12.190;2023-05-14T03:22:05;95999.88;;;7.97;100.00
23677;BME280;31493;49.058;12.190;2023-05-14T03:24:33;95994.56;;;8.00;100.00
23677;BME280;31493;49.058;12.190;2023-05-14T03:27:00;96004.22;;;7.97;100.00
23677;BME280;31493;49.058;12.190;2023-05-14T03:29:27;95992.97;;;7.98;100.00
23677;BME280;31493;49.058;12.190;2023-05-14T03:31:54;96002.94;;;8.04;100.00
23677;BME280;31493;49.058;12.190;2023-05-14T03:34:21;95999.88;;;7.97;100.00
23677;BME280;31493;49.058;12.190;2023-05-14T03:36:50;95998.28;;;8.11;100.00
23677;BME280;31493;49.058;12.190;2023-05-14T03:39:17;95998.81;;;8.01;100.00
23677;BME280;31493;49.058;12.190;2023-05-14T03:41:44;95999.72;;;8.00;100.00
23677;BME280;31493;49.058;12.190;2023-05-14T03:44:12;95999.47;;;8.05;100.00
23677;BME280;31493;49.058;12.190;2023-05-14T03:46:39;96006.81;;;7.97;100.00
23677;BME280;31493;49.058;12.190;2023-05-14T03:49:06;96014.31;;;7.86;100.00
23677;BME280;31493;49.058;12.190;2023-05-14T03:51:33;96004.22;;;7.97;100.00
23677;BME280;31493;49.058;12.190;2023-05-14T03:54:02;96010.19;;;7.97;100.00
23677;BME280;31493;49.058;12.190;2023-05-14T03:56:29;96005.84;;;7.84;100.00
23677;BME280;31493;49.058;12.190;2023-05-14T03:58:56;96009.56;;;7.79;100.00
23677;BME280;31493;49.058;12.190;2023-05-14T04:01:23;96010.84;;;7.87;100.00
23677;BME280;31493;49.058;12.190;2023-05-14T04:03:50;96004.31;;;7.81;100.00
23677;BME280;31493;49.058;12.190;2023-05-14T04:06:17;96004.78;;;7.88;100.00
23677;BME280;31493;49.058;12.190;2023-05-14T04:08:44;95991.31;;;7.82;100.00
23677;BME280;31493;49.058;12.190;2023-05-14T04:11:12;95997.78;;;7.90;100.00
23677;BME280;31493;49.058;12.190;2023-05-14T04:13:39;95989.41;;;7.86;100.00
23677;BME280;31493;49.058;12.190;2023-05-14T04:16:06;95990.13;;;7.88;100.00
23677;BME280;31493;49.058;12.190;2023-05-14T04:18:33;96000.25;;;7.91;100.00
23677;BME280;31493;49.058;12.190;2023-05-14T04:21:00;95995.50;;;7.99;100.00
23677;BME280;31493;49.058;12.190;2023-05-14T04:23:27;95988.69;;;7.98;100.00
23677;BME280;31493;49.058;12.190;2023-05-14T04:25:56;95993.66;;;8.01;100.00
23677;BME280;31493;49.058;12.190;2023-05-14T04:28:24;95983.16;;;8.04;100.00
23677;BME280;31493;49.058;12.190;2023-05-14T04:30:52;95991.63;;;8.06;100.00
23677;BME280;31493;49.058;12.190;2023-05-14T04:33:19;95987.88;;;8.12;100.00
23677;BME280;31493;49.058;12.190;2023-05-14T04:35:46;95992.09;;;8.13;100.00
23677;BME280;31493;49.058;12.190;2023-05-14T04:38:13;95990.91;;;8.19;100.00
23677;BME280;31493;49.058;12.190;2023-05-14T04:40:40;96000.19;;;8.21;100.00
23677;BME280;31493;49.058;12.190;2023-05-14T04:43:07;95994.25;;;8.35;100.00
23677;BME280;31493;49.058;12.190;2023-05-14T04:45:36;95984.78;;;8.36;100.00
23677;BME280;31493;49.058;12.190;2023-05-14T04:48:04;95995.72;;;8.39;100.00
23677;BME280;31493;49.058;12.190;2023-05-14T04:50:32;95981.34;;;8.49;100.00
23677;BME280;31493;49.058;12.190;2023-05-14T04:52:59;95989.28;;;8.60;100.00
23677;BME280;31493;49.058;12.190;2023-05-14T04:55:26;95988.69;;;8.70;100.00
23677;BME280;31493;49.058;12.190;2023-05-14T04:57:53;95990.34;;;8.85;100.00
23677;BME280;31493;49.058;12.190;2023-05-14T05:00:21;95987.16;;;9.08;100.00
23677;BME280;31493;49.058;12.190;2023-05-14T05:02:49;95992.88;;;8.99;100.00
23677;BME280;31493;49.058;12.190;2023-05-14T05:05:16;95992.22;;;9.10;100.00
23677;BME280;31493;49.058;12.190;2023-05-14T05:07:43;95993.38;;;9.19;100.00
23677;BME280;31493;49.058;12.190;2023-05-14T05:10:10;95997.00;;;9.16;100.00
23677;BME280;31493;49.058;12.190;2023-05-14T05:12:37;95990.03;;;9.43;100.00
23677;BME280;31493;49.058;12.190;2023-05-14T05:15:05;95993.59;;;9.55;100.00
23677;BME280;31493;49.058;12.190;2023-05-14T05:17:32;95997.69;;;9.45;100.00
23677;BME280;31493;49.058;12.190;2023-05-14T05:20:01;95990.81;;;9.58;100.00
23677;BME280;31493;49.058;12.190;2023-05-14T05:22:29;95985.69;;;9.71;100.00
23677;BME280;31493;49.058;12.190;2023-05-14T05:24:56;95986.25;;;9.62;100.00
23677;BME280;31493;49.058;12.190;2023-05-14T05:27:24;95983.72;;;9.75;100.00
23677;BME280;31493;49.058;12.190;2023-05-14T05:29:51;95984.47;;;9.89;100.00
23677;BME280;31493;49.058;12.190;2023-05-14T05:32:18;95990.88;;;9.84;100.00
23677;BME280;31493;49.058;12.190;2023-05-14T05:34:45;95980.97;;;10.29;100.00
23677;BME280;31493;49.058;12.190;2023-05-14T05:37:14;95982.50;;;10.18;100.00
23677;BME280;31493;49.058;12.190;2023-05-14T05:39:41;95979.00;;;10.19;100.00
23677;BME280;31493;49.058;12.190;2023-05-14T05:42:08;95973.09;;;10.43;100.00
23677;BME280;31493;49.058;12.190;2023-05-14T05:44:35;95980.00;;;10.55;100.00
23677;BME280;31493;49.058;12.190;2023-05-14T05:47:02;95973.09;;;10.43;100.00
23677;BME280;31493;49.058;12.190;2023-05-14T05:49:29;95973.50;;;10.37;100.00
23677;BME280;31493;49.058;12.190;2023-05-14T05:51:56;95972.38;;;10.54;100.00
23677;BME280;31493;49.058;12.190;2023-05-14T05:54:25;95976.63;;;10.91;100.00
23677;BME280;31493;49.058;12.190;2023-05-14T05:56:52;95977.34;;;10.93;100.00
23677;BME280;31493;49.058;12.190;2023-05-14T05:59:19;95976.09;;;11.23;100.00
23677;BME280;31493;49.058;12.190;2023-05-14T06:01:46;95985.53;;;11.24;100.00
23677;BME280;31493;49.058;12.190;2023-05-14T06:04:13;95974.38;;;11.11;100.00
23677;BME280;31493;49.058;12.190;2023-05-14T06:06:40;95983.81;;;11.12;100.00
23677;BME280;31493;49.058;12.190;2023-05-14T06:09:07;95978.19;;;11.42;100.00
23677;BME280;31493;49.058;12.190;2023-05-14T06:11:36;95990.22;;;11.19;100.00
23677;BME280;31493;49.058;12.190;2023-05-14T06:14:03;95976.44;;;11.42;100.00
23677;BME280;31493;49.058;12.190;2023-05-14T06:16:30;95976.53;;;11.41;100.00
23677;BME280;31493;49.058;12.190;2023-05-14T06:18:57;95983.59;;;11.39;100.00
23677;BME280;31493;49.058;12.190;2023-05-14T06:21:24;95983.91;;;11.58;100.00
23677;BME280;31493;49.058;12.190;2023-05-14T06:23:51;95977.06;;;11.81;100.00
23677;BME280;31493;49.058;12.190;2023-05-14T06:26:18;95987.22;;;11.95;100.00
23677;BME280;31493;49.058;12.190;2023-05-14T06:28:47;95986.72;;;11.79;100.00
23677;BME280;31493;49.058;12.190;2023-05-14T06:31:14;95983.69;;;11.85;100.00
23677;BME280;31493;49.058;12.190;2023-05-14T06:33:41;95981.84;;;11.98;100.00
23677;BME280;31493;49.058;12.190;2023-05-14T06:36:08;95992.59;;;12.27;100.00
23677;BME280;31493;49.058;12.190;2023-05-14T06:38:35;95989.78;;;12.30;100.00
23677;BME280;31493;49.058;12.190;2023-05-14T06:41:03;95992.72;;;12.26;100.00
23677;BME280;31493;49.058;12.190;2023-05-14T06:43:30;95981.63;;;12.13;100.00
23677;BME280;31493;49.058;12.190;2023-05-14T06:45:58;95979.16;;;12.56;100.00
23677;BME280;31493;49.058;12.190;2023-05-14T06:48:26;95990.84;;;12.39;100.00
23677;BME280;31493;49.058;12.190;2023-05-14T06:50:54;95982.13;;;12.62;100.00
23677;BME280;31493;49.058;12.190;2023-05-14T06:53:21;95985.78;;;12.49;100.00
23677;BME280;31493;49.058;12.190;2023-05-14T06:55:48;95985.66;;;12.39;100.00
23677;BME280;31493;49.058;12.190;2023-05-14T06:58:15;95991.66;;;12.40;100.00
23677;BME280;31493;49.058;12.190;2023-05-14T07:00:42;95993.34;;;12.41;100.00
23677;BME280;31493;49.058;12.190;2023-05-14T07:03:10;95983.41;;;12.34;100.00
23677;BME280;31493;49.058;12.190;2023-05-14T07:05:37;95984.44;;;12.21;100.00
23677;BME280;31493;49.058;12.190;2023-05-14T07:08:06;95984.00;;;12.60;100.00
23677;BME280;31493;49.058;12.190;2023-05-14T07:10:33;95987.78;;;12.79;97.18
23677;BME280;31493;49.058;12.190;2023-05-14T07:13:00;95983.38;;;13.02;100.00
23677;BME280;31493;49.058;12.190;2023-05-14T07:15:28;95992.25;;;12.88;99.42
23677;BME280;31493;49.058;12.190;2023-05-14T07:17:55;95987.88;;;12.88;92.44
23677;BME280;31493;49.058;12.190;2023-05-14T07:20:23;95986.69;;;12.93;92.70
23677;BME280;31493;49.058;12.190;2023-05-14T07:22:51;95977.78;;;13.17;92.68
23677;BME280;31493;49.058;12.190;2023-05-14T07:25:18;95981.22;;;13.18;91.96
23677;BME280;31493;49.058;12.190;2023-05-14T07:27:45;95977.94;;;12.94;88.69
23677;BME280;31493;49.058;12.190;2023-05-14T07:30:13;95985.94;;;13.13;90.59
23677;BME280;31493;49.058;12.190;2023-05-14T07:32:40;95972.81;;;13.26;90.63
23677;BME280;31493;49.058;12.190;2023-05-14T07:35:08;95969.94;;;13.51;88.96
23677;BME280;31493;49.058;12.190;2023-05-14T07:37:37;95974.94;;;13.64;90.30
23677;BME280;31493;49.058;12.190;2023-05-14T07:40:06;95976.50;;;13.55;88.69
23677;BME280;31493;49.058;12.190;2023-05-14T07:42:33;95973.06;;;13.11;86.53
23677;BME280;31493;49.058;12.190;2023-05-14T07:45:00;95968.31;;;13.39;88.81
23677;BME280;31493;49.058;12.190;2023-05-14T07:47:28;95972.78;;;13.37;87.36
23677;BME280;31493;49.058;12.190;2023-05-14T07:49:55;95965.66;;;13.50;91.27
23677;BME280;31493;49.058;12.190;2023-05-14T07:52:23;95961.63;;;13.57;91.25
23677;BME280;31493;49.058;12.190;2023-05-14T07:54:51;95960.41;;;13.29;92.72
23677;BME280;31493;49.058;12.190;2023-05-14T07:57:19;95963.31;;;13.47;91.12
23677;BME280;31493;49.058;12.190;2023-05-14T07:59:47;95966.91;;;13.88;90.26
23677;BME280;31493;49.058;12.190;2023-05-14T08:02:14;95965.19;;;13.98;87.66
23677;BME280;31493;49.058;12.190;2023-05-14T08:04:42;95964.81;;;13.82;87.62
23677;BME280;31493;49.058;12.190;2023-05-14T08:07:09;95955.84;;;13.54;86.91
23677;BME280;31493;49.058;12.190;2023-05-14T08:09:36;95947.28;;;14.05;87.55
23677;BME280;31493;49.058;12.190;2023-05-14T08:12:05;95945.97;;;13.89;88.94
23677;BME280;31493;49.058;12.190;2023-05-14T08:14:33;95944.34;;;14.19;87.54
23677;BME280;31493;49.058;12.190;2023-05-14T08:17:00;95934.72;;;14.40;87.14
23677;BME280;31493;49.058;12.190;2023-05-14T08:19:27;95939.66;;;14.13;86.24
23677;BME280;31493;49.058;12.190;2023-05-14T08:21:54;95934.53;;;13.81;85.92
23677;BME280;31493;49.058;12.190;2023-05-14T08:24:21;95944.94;;;13.60;87.04
23677;BME280;31493;49.058;12.190;2023-05-14T08:26:48;95926.84;;;13.58;86.51
23677;BME280;31493;49.058;12.190;2023-05-14T08:29:16;95921.91;;;13.23;85.88
23677;BME280;31493;49.058;12.190;2023-05-14T08:31:43;95924.66;;;13.22;86.26
23677;BME280;31493;49.058;12.190;2023-05-14T08:34:10;95933.53;;;13.08;87.10
23677;BME280;31493;49.058;12.190;2023-05-14T08:36:37;95922.28;;;13.07;88.25
23677;BME280;31493;49.058;12.190;2023-05-14T08:39:07;95921.78;;;13.13;87.21
23677;BME280;31493;49.058;12.190;2023-05-14T08:41:35;95924.34;;;13.36;86.82
23677;BME280;31493;49.058;12.190;2023-05-14T08:44:05;95914.34;;;13.20;88.91
23677;BME280;31493;49.058;12.190;2023-05-14T08:46:36;95921.41;;;13.29;89.57
23677;BME280;31493;49.058;12.190;2023-05-14T08:49:09;95923.06;;;13.30;88.32
23677;BME280;31493;49.058;12.190;2023-05-14T08:51:40;95911.53;;;13.44;88.29
23677;BME280;31493;49.058;12.190;2023-05-14T08:54:09;95920.63;;;13.50;88.23
23677;BME280;31493;49.058;12.190;2023-05-14T08:56:39;95919.31;;;13.23;87.54
23677;BME280;31493;49.058;12.190;2023-05-14T08:59:07;95919.09;;;13.26;87.75
23677;BME280;31493;49.058;12.190;2023-05-14T09:01:36;95913.53;;;13.52;88.51
23677;BME280;31493;49.058;12.190;2023-05-14T09:04:05;95911.94;;;13.39;87.94
23677;BME280;31493;49.058;12.190;2023-05-14T09:06:33;95913.06;;;13.67;88.32
23677;BME280;31493;49.058;12.190;2023-05-14T09:09:00;95902.81;;;13.45;88.14
23677;BME280;31493;49.058;12.190;2023-05-14T09:11:27;95896.06;;;13.42;88.07
23677;BME280;31493;49.058;12.190;2023-05-14T09:13:54;95897.22;;;13.50;86.86
23677;BME280;31493;49.058;12.190;2023-05-14T09:16:21;95895.25;;;13.42;88.53
23677;BME280;31493;49.058;12.190;2023-05-14T09:18:51;95892.19;;;13.37;89.33
23677;BME280;31493;49.058;12.190;2023-05-14T09:21:18;95895.13;;;13.43;87.76
23677;BME280;31493;49.058;12.190;2023-05-14T09:23:45;95886.50;;;13.64;91.03
23677;BME280;31493;49.058;12.190;2023-05-14T09:26:16;95894.63;;;13.70;88.68
23677;BME280;31493;49.058;12.190;2023-05-14T09:28:43;95896.59;;;13.57;87.08
23677;BME280;31493;49.058;12.190;2023-05-14T09:31:10;95894.25;;;13.54;85.40
23677;BME280;31493;49.058;12.190;2023-05-14T09:33:38;95902.34;;;13.40;86.40
23677;BME280;31493;49.058;12.190;2023-05-14T09:36:07;95901.41;;;13.62;87.32
23677;BME280;31493;49.058;12.190;2023-05-14T09:38:35;95894.88;;;13.67;88.23
23677;BME280;31493;49.058;12.190;2023-05-14T09:41:01;95893.31;;;13.76;88.55
23677;BME280;31493;49.058;12.190;2023-05-14T09:43:28;95889.41;;;13.50;88.60
23677;BME280;31493;49.058;12.190;2023-05-14T09:45:55;95895.19;;;13.53;87.78
23677;BME280;31493;49.058;12.190;2023-05-14T09:48:23;95894.38;;;13.53;87.92
23677;BME280;31493;49.058;12.190;2023-05-14T09:50:54;95878.00;;;13.62;87.91
23677;BME280;31493;49.058;12.190;2023-05-14T09:53:22;95880.84;;;13.80;88.38
23677;BME280;31493;49.058;12.190;2023-05-14T09:55:49;95891.75;;;13.94;88.08
23677;BME280;31493;49.058;12.190;2023-05-14T09:58:16;95872.22;;;14.00;87.21
23677;BME280;31493;49.058;12.190;2023-05-14T10:00:45;95873.13;;;13.99;85.16
23677;BME280;31493;49.058;12.190;2023-05-14T10:03:13;95882.69;;;14.19;87.54
23677;BME280;31493;49.058;12.190;2023-05-14T10:05:45;95878.56;;;14.17;85.99
23677;BME280;31493;49.058;12.190;2023-05-14T10:08:21;95872.59;;;13.95;88.28
23677;BME280;31493;49.058;12.190;2023-05-14T10:10:53;95870.66;;;13.97;88.93
23677;BME280;31493;49.058;12.190;2023-05-14T10:13:23;95868.34;;;13.94;89.23
23677;BME280;31493;49.058;12.190;2023-05-14T10:15:54;95868.78;;;14.00;90.26
23677;BME280;31493;49.058;12.190;2023-05-14T10:18:23;95867.84;;;14.10;89.11
23677;BME280;31493;49.058;12.190;2023-05-14T10:20:56;95863.25;;;14.23;88.01
23677;BME280;31493;49.058;12.190;2023-05-14T10:23:28;95864.69;;;14.37;86.36
23677;BME280;31493;49.058;12.190;2023-05-14T10:25:58;95863.84;;;14.37;86.61
23677;BME280;31493;49.058;12.190;2023-05-14T10:28:25;95856.78;;;14.48;84.18
23677;BME280;31493;49.058;12.190;2023-05-14T10:30:53;95856.59;;;14.81;84.14
23677;BME280;31493;49.058;12.190;2023-05-14T10:33:20;95852.41;;;14.59;84.21
23677;BME280;31493;49.058;12.190;2023-05-14T10:36:05;95844.63;;;14.68;83.98
23677;BME280;31493;49.058;12.190;2023-05-14T10:38:34;95847.22;;;14.59;84.42
23677;BME280;31493;49.058;12.190;2023-05-14T10:41:04;95838.06;;;15.13;84.48
23677;BME280;31493;49.058;12.190;2023-05-14T10:43:35;95840.28;;;15.17;82.06
23677;BME280;31493;49.058;12.190;2023-05-14T10:46:03;95845.34;;;14.90;83.25
23677;BME280;31493;49.058;12.190;2023-05-14T10:48:31;95840.81;;;15.01;82.65
23677;BME280;31493;49.058;12.190;2023-05-14T10:51:00;95845.88;;;14.84;81.54
23677;BME280;31493;49.058;12.190;2023-05-14T10:53:32;95837.66;;;14.88;84.35
23677;BME280;31493;49.058;12.190;2023-05-14T10:56:03;95829.56;;;14.91;81.35
23677;BME280;31493;49.058;12.190;2023-05-14T10:58:34;95829.31;;;15.04;82.78
23677;BME280;31493;49.058;12.190;2023-05-14T11:01:01;95832.13;;;14.52;83.27
23677;BME280;31493;49.058;12.190;2023-05-14T11:03:31;95842.59;;;14.82;82.77
23677;BME280;31493;49.058;12.190;2023-05-14T11:06:05;95832.31;;;15.19;81.53
23677;BME280;31493;49.058;12.190;2023-05-14T11:08:33;95826.81;;;15.12;80.58
23677;BME280;31493;49.058;12.190;2023-05-14T11:11:00;95836.97;;;14.86;80.17
23677;BME280;31493;49.058;12.190;2023-05-14T11:13:29;95822.59;;;15.11;77.14
23677;BME280;31493;49.058;12.190;2023-05-14T11:15:59;95836.03;;;15.07;76.57
23677;BME280;31493;49.058;12.190;2023-05-14T11:18:27;95816.94;;;15.16;78.06
23677;BME280;31493;49.058;12.190;2023-05-14T11:20:57;95826.00;;;15.21;80.13
23677;BME280;31493;49.058;12.190;2023-05-14T11:23:24;95823.66;;;15.09;78.34
23677;BME280;31493;49.058;12.190;2023-05-14T11:25:51;95811.44;;;15.09;82.40
23677;BME280;31493;49.058;12.190;2023-05-14T11:28:23;95815.16;;;15.07;87.10
23677;BME280;31493;49.058;12.190;2023-05-14T11:30:52;95812.44;;;14.98;87.52
23677;BME280;31493;49.058;12.190;2023-05-14T11:33:20;95812.84;;;14.94;85.06
23677;BME280;31493;49.058;12.190;2023-05-14T11:35:47;95809.66;;;14.90;81.43
23677;BME280;31493;49.058;12.190;2023-05-14T11:38:15;95821.75;;;14.82;80.86
23677;BME280;31493;49.058;12.190;2023-05-14T11:40:42;95811.59;;;14.88;86.59
23677;BME280;31493;49.058;12.190;2023-05-14T11:43:17;95805.69;;;14.76;84.78
23677;BME280;31493;49.058;12.190;2023-05-14T11:45:48;95816.09;;;14.67;93.56
23677;BME280;31493;49.058;12.190;2023-05-14T11:48:16;95806.50;;;14.58;93.50
23677;BME280;31493;49.058;12.190;2023-05-14T11:50:44;95808.16;;;14.78;99.37
23677;BME280;31493;49.058;12.190;2023-05-14T11:53:15;95803.25;;;15.04;100.00
23677;BME280;31493;49.058;12.190;2023-05-14T11:55:42;95793.91;;;14.82;89.71
23677;BME280;31493;49.058;12.190;2023-05-14T11:58:09;95798.56;;;15.08;100.00
23677;BME280;31493;49.058;12.190;2023-05-14T12:00:36;95789.59;;;15.39;98.27
23677;BME280;31493;49.058;12.190;2023-05-14T12:03:04;95786.94;;;15.68;100.00
23677;BME280;31493;49.058;12.190;2023-05-14T12:05:32;95788.88;;;16.03;100.00
23677;BME280;31493;49.058;12.190;2023-05-14T12:08:04;95779.88;;;15.31;94.00
23677;BME280;31493;49.058;12.190;2023-05-14T12:10:44;95778.94;;;15.03;94.97
23677;BME280;31493;49.058;12.190;2023-05-14T12:13:14;95780.44;;;15.16;92.67
23677;BME280;31493;49.058;12.190;2023-05-14T12:15:44;95767.81;;;15.21;90.37
23677;BME280;31493;49.058;12.190;2023-05-14T12:18:11;95768.38;;;14.95;87.77
23677;BME280;31493;49.058;12.190;2023-05-14T12:20:45;95769.50;;;14.93;88.43
23677;BME280;31493;49.058;12.190;2023-05-14T12:23:12;95762.22;;;15.06;88.15
23677;BME280;31493;49.058;12.190;2023-05-14T12:25:39;95756.56;;;15.20;88.78
23677;BME280;31493;49.058;12.190;2023-05-14T12:28:13;95751.59;;;15.37;89.24
23677;BME280;31493;49.058;12.190;2023-05-14T12:30:40;95755.72;;;15.20;84.52
23677;BME280;31493;49.058;12.190;2023-05-14T12:33:07;95747.44;;;15.53;85.47
23677;BME280;31493;49.058;12.190;2023-05-14T12:35:34;95736.44;;;15.59;84.18
23677;BME280;31493;49.058;12.190;2023-05-14T12:38:03;95749.19;;;15.63;86.57
23677;BME280;31493;49.058;12.190;2023-05-14T12:40:30;95740.19;;;15.28;82.32
23677;BME280;31493;49.058;12.190;2023-05-14T12:42:57;95741.63;;;15.13;83.21
23677;BME280;31493;49.058;12.190;2023-05-14T12:45:24;95738.25;;;15.40;83.22
23677;BME280;31493;49.058;12.190;2023-05-14T12:47:51;95734.81;;;15.49;81.82
23677;BME280;31493;49.058;12.190;2023-05-14T12:50:18;95734.75;;;15.12;83.06
23677;BME280;31493;49.058;12.190;2023-05-14T12:52:45;95745.44;;;15.18;84.29